createdAt,value
2023-03-15T12:50:19.244Z,0.50
2023-03-15T12:54:19.153Z,0.34
2023-03-15T12:58:19.995Z,0.34
2023-03-15T13:02:20.285Z,0.34
2023-03-15T13:06:19.378Z,0.34
2023-03-15T13:10:19.353Z,0.34
2023-03-15T13:14:19.521Z,0.34
2023-03-15T13:18:19.632Z,0.50
2023-03-15T13:22:19.774Z,0.50
2023-03-15T13:26:19.881Z,0.52
2023-03-15T13:30:20.039Z,0.50
2023-03-15T13:34:20.148Z,0.53
2023-03-15T13:38:20.344Z,0.51
2023-03-15T13:42:20.575Z,0.50
2023-03-15T13:46:20.687Z,0.54
2023-03-15T13:50:20.817Z,0.57
2023-03-15T13:54:21.003Z,0.52
2023-03-15T13:58:21.169Z,0.53
2023-03-15T14:02:21.392Z,0.52
2023-03-15T14:06:21.362Z,0.52
2023-03-15T14:10:21.286Z,0.53
2023-03-15T14:14:21.281Z,0.56
2023-03-15T14:18:21.281Z,0.58
2023-03-15T14:22:21.204Z,0.58
2023-03-15T14:26:21.229Z,0.57
2023-03-15T14:30:21.152Z,0.58
2023-03-15T14:34:21.125Z,0.59
2023-03-15T14:38:21.952Z,0.61
2023-03-15T14:42:21.030Z,0.62
2023-03-15T14:46:21.058Z,0.62
2023-03-15T14:50:20.968Z,0.62
2023-03-15T14:54:20.920Z,0.62
2023-03-15T14:58:20.925Z,0.62
2023-03-15T15:02:20.919Z,0.63
2023-03-15T15:06:21.454Z,0.63
2023-03-15T15:10:20.808Z,0.62
2023-03-15T15:14:20.804Z,0.63
2023-03-15T15:18:20.825Z,0.65
2023-03-15T15:22:21.789Z,0.65
2023-03-15T15:26:20.613Z,0.65
2023-03-15T15:30:20.740Z,0.61
2023-03-15T15:34:20.543Z,0.61
2023-03-15T15:38:21.047Z,0.62
2023-03-15T15:42:20.584Z,0.61
2023-03-15T15:46:20.683Z,0.62
2023-03-15T15:50:20.629Z,0.61
2023-03-15T15:54:20.724Z,0.61
2023-03-15T15:58:21.004Z,0.61
2023-03-15T16:02:21.092Z,0.61
2023-03-15T16:06:21.014Z,0.60
2023-03-15T16:10:21.096Z,0.61
2023-03-15T16:14:21.262Z,0.60
2023-03-15T16:18:21.330Z,0.62
2023-03-15T16:22:21.388Z,0.63
2023-03-15T16:26:21.561Z,0.61
2023-03-15T16:30:21.705Z,0.62
2023-03-15T16:34:22.016Z,0.61
2023-03-15T16:38:22.097Z,0.62
2023-03-15T16:42:22.995Z,0.61
2023-03-15T16:46:22.326Z,0.62
2023-03-15T16:50:22.577Z,0.63
2023-03-15T16:54:39.954Z,0.64
2023-03-15T16:58:23.719Z,0.62
2023-03-15T17:02:22.873Z,0.63
2023-03-15T17:06:23.032Z,0.63
2023-03-15T17:10:23.543Z,0.63
2023-03-15T17:14:24.039Z,0.63
2023-03-15T17:18:23.675Z,0.64
2023-03-15T17:22:23.894Z,0.63
2023-03-15T17:26:24.142Z,0.64
2023-03-15T17:30:24.337Z,0.64
2023-03-15T17:34:24.250Z,0.62
2023-03-15T17:38:24.243Z,0.64
2023-03-15T17:42:24.290Z,0.64
2023-03-15T17:46:24.202Z,0.65
2023-03-15T17:50:24.190Z,0.65
2023-03-15T17:54:24.069Z,0.64
2023-03-15T17:58:24.053Z,0.65
2023-03-15T18:02:24.019Z,0.65
2023-03-15T18:06:23.992Z,0.64
2023-03-15T18:10:25.039Z,0.65
2023-03-15T18:14:24.136Z,0.64
2023-03-15T18:18:24.124Z,0.65
2023-03-15T18:22:24.039Z,0.64
2023-03-15T18:26:24.018Z,0.64
2023-03-15T18:30:25.022Z,0.65
2023-03-15T18:34:23.895Z,0.65
2023-03-15T18:38:23.971Z,0.65
2023-03-15T18:42:23.835Z,0.64
2023-03-15T18:46:23.883Z,0.66
2023-03-15T18:50:23.769Z,0.66
2023-03-15T18:54:24.552Z,0.66
2023-03-15T18:58:23.729Z,0.68
2023-03-15T19:02:23.715Z,0.67
2023-03-15T19:06:23.715Z,0.65
2023-03-15T19:10:23.722Z,0.67
2023-03-15T19:14:23.720Z,0.68
2023-03-15T19:18:23.901Z,0.67
2023-03-15T19:22:23.775Z,0.67
2023-03-15T19:26:23.728Z,0.68
2023-03-15T19:30:23.650Z,0.68
2023-03-15T19:34:23.742Z,0.67
2023-03-15T19:38:23.663Z,0.69
2023-03-15T19:42:23.617Z,0.69
2023-03-15T19:46:23.770Z,0.68
2023-03-15T19:50:23.561Z,0.68
2023-03-15T19:54:23.548Z,0.68
2023-03-15T19:58:23.640Z,0.69
2023-03-15T20:02:23.492Z,0.69
2023-03-15T20:06:23.524Z,0.70
2023-03-15T20:10:24.051Z,0.70
2023-03-15T20:14:23.502Z,0.70
2023-03-15T20:18:23.530Z,0.69
2023-03-15T20:22:23.477Z,0.70
2023-03-15T20:26:23.493Z,0.70
2023-03-15T20:30:23.951Z,0.69
2023-03-15T20:34:23.515Z,0.70
2023-03-15T20:38:23.499Z,0.71
2023-03-15T20:42:23.512Z,0.71
2023-03-15T20:46:23.549Z,0.71
2023-03-15T20:50:24.109Z,0.71
2023-03-15T20:54:23.508Z,0.72
2023-03-15T20:58:23.537Z,0.72
2023-03-15T21:02:23.568Z,0.70
2023-03-15T21:06:23.601Z,0.70
2023-03-15T21:10:23.962Z,0.71
2023-03-15T21:14:23.658Z,0.67
2023-03-15T21:18:23.682Z,0.67
2023-03-15T21:22:23.735Z,0.66
2023-03-15T21:26:23.749Z,0.63
2023-03-15T21:30:24.038Z,0.65
2023-03-15T21:34:23.747Z,0.66
2023-03-15T21:38:23.818Z,0.67
2023-03-15T21:42:23.840Z,0.64
2023-03-15T21:46:23.896Z,0.65
2023-03-15T21:50:24.265Z,0.63
2023-03-15T21:54:23.950Z,0.66
2023-03-15T21:58:23.964Z,0.65
2023-03-15T22:02:24.018Z,0.63
2023-03-15T22:06:24.054Z,0.64
2023-03-15T22:10:24.409Z,0.65
2023-03-15T22:14:24.189Z,0.65
2023-03-15T22:18:24.218Z,0.66
2023-03-15T22:22:24.335Z,0.65
2023-03-15T22:26:25.120Z,0.64
2023-03-15T22:30:24.694Z,0.65
2023-03-15T22:34:24.543Z,0.65
2023-03-15T22:38:24.618Z,0.67
2023-03-15T22:42:24.687Z,0.65
2023-03-15T22:46:24.801Z,0.66
2023-03-15T22:50:25.274Z,0.66
2023-03-15T22:54:24.952Z,0.66
2023-03-15T22:58:25.028Z,0.68
2023-03-15T23:02:25.108Z,0.67
2023-03-15T23:06:25.166Z,0.68
2023-03-15T23:10:25.478Z,0.67
2023-03-15T23:14:25.295Z,0.67
2023-03-15T23:18:25.371Z,0.68
2023-03-15T23:22:25.513Z,0.69
2023-03-15T23:26:25.557Z,0.67
2023-03-15T23:30:25.940Z,0.68
2023-03-15T23:34:25.774Z,0.70
2023-03-15T23:38:25.892Z,0.68
2023-03-15T23:42:26.099Z,0.70
2023-03-15T23:46:26.021Z,0.71
2023-03-15T23:50:26.966Z,0.71
2023-03-15T23:54:26.175Z,0.71
2023-03-15T23:58:26.220Z,0.72
